SBSN/STM METAR and TAF weather

Enter ICAO airport designator
Station Type Date Time Source
SBSN METAR 2020/04/05 12:00 UTC NOAA

SBSN 051200Z 10012KT 9999 SCT015 SCT100 28/26 Q1011


Station Type Date Time Source
SBSN Decoded METAR 2020/04/05 12:00 UTC NOAA

Santarem-Aeroporto, Brazil (SBSN) 02-26S 054-43W 72M
Apr 05, 2020 - 08:00 AM EDT / 2020.04.05 1200 UTC
Wind: from the E (100 degrees) at 14 MPH (12 KT):0
Visibility: greater than 7 mile(s):0
Sky conditions: partly cloudy
Temperature: 82 F (28 C)
Dew Point: 78 F (26 C)
Relative Humidity: 88%
Pressure (altimeter): 29.85 in. Hg (1011 hPa)
ob: SBSN 051200Z 10012KT 9999 SCT015 SCT100 28/26 Q1011
cycle: 12

Station Type Date Time Source
SBSN TAF 2020/04/05 12:42 UTC NOAA

TAF SBSN 050912Z 0512/0612 08007KT 9999 SCT012 TX31/0518Z TN24/0609Z
BECMG 0517/0519 SCT023 FEW025TCU PROB40 0520/0524 TS SCT023 FEW027CB
BECMG 0600/0602 16005KT FEW017
BECMG 0608/0610 07005KT
RMK PHQ

Example: see airport list